Time;durP1;ratioP1;P1;durP2;ratioP2;P2;SDS_P1;SDS_P2;PMS_P1;PMS_P2;Temp;Humidity;BMP_temperature;BMP_pressure;BME280_temperature;BME280_humidity;BME280_pressure;Samples;Min_cycle;Max_cycle;Signal;HPM_P1;HPM_P2
2021/11/30 00:01:47;;;;;;;9.00;4.88;;;26.50;93.40;;;;;;5080333;28;20021;-45
2021/11/30 00:04:15;;;;;;;8.85;5.13;;;26.50;93.30;;;;;;5056963;28;20017;-45
2021/11/30 00:06:44;;;;;;;5.75;4.85;;;26.50;93.20;;;;;;5066236;28;20238;-49
2021/11/30 00:12:07;;;;;;;9.55;4.22;;;26.40;93.40;;;;;;5084192;28;20052;-42
2021/11/30 00:14:38;;;;;;;6.57;3.60;;;26.40;93.30;;;;;;5085176;28;20012;-44
2021/11/30 00:17:06;;;;;;;6.20;3.67;;;26.40;93.30;;;;;;5084902;28;20028;-45
2021/11/30 00:19:33;;;;;;;7.60;3.70;;;26.40;93.20;;;;;;5067204;28;20016;-44
2021/11/30 00:22:02;;;;;;;3.97;2.83;;;26.40;93.20;;;;;;5067620;28;20020;-43
2021/11/30 00:24:30;;;;;;;8.18;3.60;;;26.30;93.10;;;;;;5084800;28;20330;-44
2021/11/30 00:26:58;;;;;;;7.35;3.25;;;26.30;93.10;;;;;;5085228;28;20020;-47
2021/11/30 00:29:25;;;;;;;6.82;3.00;;;26.30;93.40;;;;;;5084894;28;20209;-48
2021/11/30 00:31:52;;;;;;;6.22;3.38;;;26.30;93.40;;;;;;5078108;28;20331;-47
2021/11/30 00:34:19;;;;;;;5.72;3.20;;;26.30;93.30;;;;;;5084957;28;20051;-44
2021/11/30 00:36:46;;;;;;;4.55;2.60;;;26.30;93.10;;;;;;5083054;28;20110;-45
2021/11/30 00:39:12;;;;;;;5.57;2.70;;;26.30;93.10;;;;;;5084554;28;20043;-48
2021/11/30 00:41:45;;;;;;;5.60;2.85;;;26.30;93.10;;;;;;5084497;28;20066;-44
2021/11/30 00:44:15;;;;;;;5.70;2.63;;;26.30;93.00;;;;;;5084645;28;20023;-41
2021/11/30 00:46:44;;;;;;;6.13;2.67;;;26.30;93.10;;;;;;5084254;28;20029;-44
2021/11/30 00:49:12;;;;;;;3.35;2.40;;;26.20;93.00;;;;;;5083639;28;20017;-44
2021/11/30 00:51:42;;;;;;;6.82;2.78;;;26.20;92.80;;;;;;5076361;28;20028;-56
2021/11/30 00:54:11;;;;;;;7.88;2.80;;;26.20;93.00;;;;;;5095918;28;20016;-52
2021/11/30 00:56:42;;;;;;;5.97;2.50;;;26.30;93.00;;;;;;5095064;28;20031;-51
2021/11/30 00:59:09;;;;;;;6.43;3.72;;;26.30;92.80;;;;;;5084368;28;20035;-52
2021/11/30 01:01:39;;;;;;;9.25;5.22;;;26.30;92.70;;;;;;5098455;28;20064;-52
2021/11/30 01:04:10;;;;;;;8.23;5.30;;;26.40;92.70;;;;;;5082794;28;20024;-51
2021/11/30 01:06:38;;;;;;;20.67;15.32;;;26.40;92.60;;;;;;5083193;28;20216;-54
2021/11/30 01:09:06;;;;;;;20.60;18.48;;;26.30;92.40;;;;;;5059388;28;20095;-58
2021/11/30 01:11:33;;;;;;;10.40;8.00;;;26.30;92.70;;;;;;5079467;28;20033;-51
2021/11/30 01:14:00;;;;;;;11.68;6.40;;;26.30;92.60;;;;;;5077377;28;20027;-53
2021/11/30 01:16:27;;;;;;;11.90;5.40;;;26.20;92.60;;;;;;5075192;28;20039;-53
2021/11/30 01:18:56;;;;;;;8.80;4.15;;;26.20;92.50;;;;;;5081705;28;20048;-57
2021/11/30 01:21:23;;;;;;;6.32;3.45;;;26.10;92.80;;;;;;5084264;28;20032;-59
2021/11/30 01:23:52;;;;;;;6.25;2.95;;;26.00;92.60;;;;;;5076721;28;20017;-56
2021/11/30 01:26:20;;;;;;;8.68;2.90;;;25.90;92.60;;;;;;5061651;28;20130;-57
2021/11/30 01:28:47;;;;;;;9.23;4.03;;;25.90;92.60;;;;;;5077500;28;20062;-54
2021/11/30 01:31:17;;;;;;;7.00;3.85;;;25.90;92.50;;;;;;5075640;28;20195;-57
2021/11/30 01:33:46;;;;;;;6.93;3.03;;;25.80;92.60;;;;;;5078987;28;20024;-57
2021/11/30 01:36:13;;;;;;;6.72;3.10;;;25.80;92.60;;;;;;5062113;28;20052;-58
2021/11/30 01:38:40;;;;;;;5.90;2.80;;;25.80;92.50;;;;;;5077422;28;20253;-53
2021/11/30 01:41:09;;;;;;;6.93;2.47;;;25.80;92.60;;;;;;5058164;28;20099;-60
2021/11/30 01:43:43;;;;;;;4.32;2.80;;;25.80;92.40;;;;;;5078062;28;20088;-55
2021/11/30 01:46:27;;;;;;;7.53;2.60;;;25.80;92.30;;;;;;5048868;28;20016;-57
2021/11/30 01:51:41;;;;;;;13.63;2.80;;;25.80;92.30;;;;;;5075191;28;20029;-57
2021/11/30 01:54:11;;;;;;;6.97;2.70;;;25.80;92.30;;;;;;5075142;28;20048;-52
2021/11/30 01:56:37;;;;;;;4.20;2.45;;;25.70;92.20;;;;;;5080059;28;20021;-55
2021/11/30 01:59:05;;;;;;;5.68;2.75;;;25.70;92.40;;;;;;5075946;28;20024;-55
2021/11/30 02:01:32;;;;;;;5.13;2.72;;;25.60;92.50;;;;;;5057165;28;20025;-57
2021/11/30 02:04:00;;;;;;;6.03;3.00;;;25.60;92.30;;;;;;5056929;28;20057;-55
2021/11/30 02:06:27;;;;;;;9.07;3.13;;;25.60;92.10;;;;;;5075356;28;20329;-59
2021/11/30 02:08:55;;;;;;;6.35;2.97;;;25.50;92.10;;;;;;5046156;28;20177;-55
2021/11/30 02:11:22;;;;;;;7.85;3.30;;;25.60;92.10;;;;;;5078614;28;20051;-55
2021/11/30 02:13:49;;;;;;;9.98;3.50;;;25.50;92.20;;;;;;5084084;28;20020;-54
2021/11/30 02:16:19;;;;;;;5.03;3.00;;;25.50;92.10;;;;;;5079820;28;20082;-52
2021/11/30 02:18:47;;;;;;;5.85;2.70;;;25.50;92.30;;;;;;5083783;28;20279;-56
2021/11/30 02:21:16;;;;;;;6.15;2.72;;;25.50;92.10;;;;;;5083659;28;20024;-54
2021/11/30 02:26:12;;;;;;;6.43;3.10;;;25.60;92.10;;;;;;5078627;28;20058;-56
2021/11/30 02:28:45;;;;;;;7.57;3.28;;;25.70;92.20;;;;;;5063717;28;20080;-54
2021/11/30 02:31:15;;;;;;;6.75;3.03;;;25.70;92.50;;;;;;5074852;28;20055;-56
2021/11/30 02:33:44;;;;;;;11.18;3.67;;;25.70;92.40;;;;;;5062282;28;20025;-57
2021/11/30 02:36:30;;;;;;;9.88;3.75;;;25.60;92.60;;;;;;5083623;28;20210;-56
2021/11/30 02:38:59;;;;;;;9.23;3.67;;;25.70;92.60;;;;;;5083076;28;20023;-54
2021/11/30 02:41:27;;;;;;;6.32;3.42;;;25.70;92.40;;;;;;5077265;28;20020;-53
2021/11/30 02:43:54;;;;;;;7.20;3.22;;;25.70;92.30;;;;;;5072269;28;20209;-59
2021/11/30 02:46:45;;;;;;;9.95;3.25;;;25.60;92.20;;;;;;5076779;28;20033;-55
2021/11/30 02:49:15;;;;;;;9.18;3.78;;;25.70;92.50;;;;;;5080011;28;20018;-54
2021/11/30 02:51:46;;;;;;;7.30;3.40;;;25.60;92.40;;;;;;5071049;28;20052;-53
2021/11/30 02:54:16;;;;;;;9.55;4.00;;;25.70;92.10;;;;;;5073606;28;20190;-51
2021/11/30 02:56:54;;;;;;;8.07;3.08;;;25.70;92.20;;;;;;5076075;28;20040;-57
2021/11/30 02:59:22;;;;;;;6.82;3.92;;;25.70;92.10;;;;;;5077566;28;20044;-58
2021/11/30 03:01:54;;;;;;;8.45;3.35;;;25.60;92.20;;;;;;5075918;28;20080;-53
2021/11/30 03:04:21;;;;;;;6.70;3.80;;;25.60;92.40;;;;;;5081281;28;20012;-53
2021/11/30 03:06:48;;;;;;;4.95;3.30;;;25.60;92.40;;;;;;5080688;28;20047;-56
2021/11/30 03:09:16;;;;;;;8.85;3.10;;;25.50;92.40;;;;;;5080736;28;20051;-57
2021/11/30 03:11:43;;;;;;;6.03;3.10;;;25.60;92.20;;;;;;5069010;28;20024;-49
2021/11/30 03:14:10;;;;;;;3.70;3.30;;;25.60;92.10;;;;;;5075744;28;20021;-48
2021/11/30 03:16:38;;;;;;;6.90;3.00;;;25.60;92.00;;;;;;5081003;28;20052;-47
2021/11/30 03:19:05;;;;;;;7.00;3.28;;;25.70;91.90;;;;;;5078075;28;20043;-45
2021/11/30 03:21:33;;;;;;;5.28;2.80;;;25.70;91.90;;;;;;5069196;28;20044;-45
2021/11/30 03:24:00;;;;;;;4.93;2.65;;;25.80;91.90;;;;;;5082733;28;20016;-54
2021/11/30 03:26:27;;;;;;;4.55;2.60;;;25.80;91.70;;;;;;5068077;28;20071;-48
2021/11/30 03:28:54;;;;;;;6.35;2.60;;;25.80;91.70;;;;;;5066482;28;20025;-47
2021/11/30 03:34:07;;;;;;;4.40;2.55;;;25.80;91.60;;;;;;5050370;28;20025;-51
2021/11/30 03:36:36;;;;;;;7.57;2.50;;;25.80;91.50;;;;;;5048563;28;20037;-47
2021/11/30 03:39:07;;;;;;;5.57;2.47;;;25.80;91.50;;;;;;5065869;28;20084;-44
2021/11/30 03:41:34;;;;;;;7.22;2.90;;;25.80;91.40;;;;;;5066367;28;20226;-47
2021/11/30 03:44:02;;;;;;;6.72;2.65;;;25.80;91.40;;;;;;5076892;28;20035;-46
2021/11/30 03:46:31;;;;;;;7.55;2.13;;;25.80;91.30;;;;;;5080104;28;20269;-51
2021/11/30 03:48:58;;;;;;;5.95;2.55;;;25.80;91.30;;;;;;5066111;28;20012;-49
2021/11/30 03:51:25;;;;;;;8.75;2.45;;;25.80;91.30;;;;;;5048661;28;20309;-47
2021/11/30 03:53:52;;;;;;;7.55;2.60;;;25.80;91.20;;;;;;5064364;28;20021;-52
2021/11/30 03:56:19;;;;;;;6.03;3.10;;;25.80;91.10;;;;;;5065912;28;20043;-46
2021/11/30 03:58:46;;;;;;;5.35;2.70;;;25.80;91.10;;;;;;5065971;28;20016;-49
2021/11/30 04:01:12;;;;;;;5.68;2.60;;;25.80;91.00;;;;;;5070599;28;20016;-49
2021/11/30 04:03:41;;;;;;;6.30;2.90;;;25.90;91.10;;;;;;5064034;28;20079;-48
2021/11/30 04:06:08;;;;;;;6.93;2.95;;;25.80;91.00;;;;;;5066131;28;20096;-47
2021/11/30 04:08:38;;;;;;;5.75;2.53;;;25.80;91.00;;;;;;5064396;28;20016;-49
2021/11/30 04:11:06;;;;;;;3.47;2.53;;;25.80;91.00;;;;;;5065470;28;20214;-49
2021/11/30 04:13:33;;;;;;;4.68;2.58;;;25.80;90.90;;;;;;5066169;28;20074;-49
2021/11/30 04:16:00;;;;;;;4.88;2.65;;;25.80;90.90;;;;;;5065553;28;20067;-47
2021/11/30 04:18:27;;;;;;;4.72;2.42;;;25.80;90.90;;;;;;5065391;28;20082;-48
2021/11/30 04:20:54;;;;;;;3.97;2.50;;;25.80;91.00;;;;;;5065398;28;20079;-48
2021/11/30 04:23:24;;;;;;;10.20;2.70;;;25.80;90.90;;;;;;5064788;28;20024;-51
2021/11/30 04:25:51;;;;;;;4.57;2.40;;;25.80;90.80;;;;;;5047104;28;20088;-48
2021/11/30 04:28:18;;;;;;;6.20;2.42;;;25.80;90.90;;;;;;5065050;28;20048;-51
2021/11/30 04:30:45;;;;;;;5.22;2.70;;;25.80;91.00;;;;;;5065262;28;20029;-48
2021/11/30 04:33:11;;;;;;;7.57;2.95;;;25.80;91.10;;;;;;5065002;28;20029;-47
2021/11/30 04:35:38;;;;;;;7.22;2.53;;;25.80;91.10;;;;;;5064904;28;20049;-46
2021/11/30 04:38:05;;;;;;;7.07;2.50;;;25.80;91.00;;;;;;5064470;28;20021;-48
2021/11/30 04:40:32;;;;;;;7.75;2.40;;;25.80;91.00;;;;;;5064740;28;20316;-48
2021/11/30 04:43:01;;;;;;;4.90;2.53;;;25.80;90.90;;;;;;5064935;28;20020;-54
2021/11/30 04:45:51;;;;;;;6.57;2.70;;;25.70;91.00;;;;;;5070372;28;20031;-46
2021/11/30 04:48:17;;;;;;;5.68;2.55;;;25.70;91.10;;;;;;5084787;28;20309;-47
2021/11/30 04:50:47;;;;;;;4.18;2.42;;;25.80;90.90;;;;;;5067220;28;20040;-48
2021/11/30 04:53:14;;;;;;;7.40;2.58;;;25.80;91.00;;;;;;5064526;28;20029;-47
2021/11/30 04:55:45;;;;;;;5.60;2.60;;;25.70;91.00;;;;;;5064735;28;20213;-46
2021/11/30 04:58:11;;;;;;;7.38;2.40;;;25.70;91.00;;;;;;5064322;28;20096;-49
2021/11/30 05:00:38;;;;;;;3.80;2.30;;;25.70;91.10;;;;;;5080455;28;20368;-47
2021/11/30 05:03:06;;;;;;;6.22;2.50;;;25.70;91.10;;;;;;5084697;28;20084;-47
2021/11/30 05:05:33;;;;;;;5.95;2.58;;;25.70;91.10;;;;;;5066476;28;20099;-53
2021/11/30 05:08:00;;;;;;;4.10;2.15;;;25.70;91.10;;;;;;5084059;28;20024;-47
2021/11/30 05:10:26;;;;;;;4.97;2.30;;;25.70;91.00;;;;;;5083816;28;20296;-46
2021/11/30 05:12:53;;;;;;;5.88;2.42;;;25.80;90.80;;;;;;5083085;28;20044;-48
2021/11/30 05:15:20;;;;;;;3.70;1.98;;;25.70;90.80;;;;;;5084048;28;20051;-50
2021/11/30 05:17:47;;;;;;;4.88;2.13;;;25.70;90.70;;;;;;5083995;28;20020;-46
2021/11/30 05:20:13;;;;;;;5.43;2.40;;;25.70;90.70;;;;;;5084261;28;20028;-46
2021/11/30 05:22:40;;;;;;;5.55;2.20;;;25.70;90.70;;;;;;5084038;28;20017;-47
2021/11/30 05:25:07;;;;;;;6.60;2.33;;;25.70;90.70;;;;;;5083857;28;20016;-48
2021/11/30 05:27:44;;;;;;;8.25;2.30;;;25.70;90.70;;;;;;5084135;28;20040;-52
2021/11/30 05:30:14;;;;;;;5.70;2.58;;;25.70;90.70;;;;;;5084055;28;20016;-49
2021/11/30 05:32:41;;;;;;;6.15;2.35;;;25.70;90.70;;;;;;5083935;28;20031;-50
2021/11/30 05:35:09;;;;;;;5.22;2.25;;;25.70;90.70;;;;;;5084110;28;20273;-49
2021/11/30 05:37:35;;;;;;;6.20;2.15;;;25.70;90.70;;;;;;5083862;28;20060;-47
2021/11/30 05:40:04;;;;;;;5.63;2.00;;;25.70;91.00;;;;;;5083998;28;20072;-45
2021/11/30 05:42:31;;;;;;;9.07;2.25;;;25.70;90.70;;;;;;5074916;28;20028;-48
2021/11/30 05:44:58;;;;;;;2.90;2.17;;;25.70;90.80;;;;;;5083939;28;20336;-46
2021/11/30 05:47:24;;;;;;;4.88;2.30;;;25.70;90.70;;;;;;5083801;28;20032;-47
2021/11/30 05:49:51;;;;;;;3.20;2.10;;;25.60;90.70;;;;;;5083690;28;20020;-47
2021/11/30 05:52:17;;;;;;;5.28;2.03;;;25.60;90.70;;;;;;5083824;28;20028;-51
2021/11/30 05:54:44;;;;;;;5.05;2.20;;;25.60;90.70;;;;;;5083727;28;20321;-46
2021/11/30 05:57:12;;;;;;;4.03;2.25;;;25.60;91.00;;;;;;5091416;28;20020;-50
2021/11/30 05:59:41;;;;;;;6.78;2.20;;;25.60;90.80;;;;;;5063954;28;20219;-46
2021/11/30 06:02:10;;;;;;;5.55;2.10;;;25.60;90.80;;;;;;5064240;28;20319;-49
2021/11/30 06:04:37;;;;;;;6.20;2.17;;;25.60;90.80;;;;;;5063470;28;20028;-46
2021/11/30 06:07:04;;;;;;;2.05;1.73;;;25.60;90.90;;;;;;5063985;28;20201;-45
2021/11/30 06:09:33;;;;;;;5.82;2.30;;;25.50;90.80;;;;;;5063845;28;20028;-47
2021/11/30 06:12:00;;;;;;;5.45;2.15;;;25.50;90.70;;;;;;5063866;28;20035;-46
2021/11/30 06:14:27;;;;;;;6.93;1.92;;;25.50;90.70;;;;;;5063429;28;20313;-47
2021/11/30 06:16:53;;;;;;;4.00;1.77;;;25.50;90.70;;;;;;5063823;28;20039;-55
2021/11/30 06:19:20;;;;;;;3.47;1.70;;;25.50;90.70;;;;;;5063298;28;20013;-52
2021/11/30 06:21:49;;;;;;;5.07;1.80;;;25.50;90.60;;;;;;5063827;28;20031;-47
2021/11/30 06:24:16;;;;;;;3.70;2.00;;;25.50;90.60;;;;;;5063651;28;20052;-49
2021/11/30 06:26:43;;;;;;;3.25;1.80;;;25.50;90.60;;;;;;5063659;28;20308;-55
2021/11/30 06:29:10;;;;;;;7.10;2.30;;;25.50;90.60;;;;;;5063408;28;20363;-48
2021/11/30 06:31:37;;;;;;;5.18;1.95;;;25.50;90.70;;;;;;5063780;28;20048;-47
2021/11/30 06:34:03;;;;;;;4.65;1.98;;;25.50;90.70;;;;;;5063219;28;20058;-48
2021/11/30 06:36:30;;;;;;;5.20;1.88;;;25.50;90.70;;;;;;5065745;28;20045;-47
2021/11/30 06:38:58;;;;;;;5.00;1.98;;;25.50;90.70;;;;;;5067160;28;20009;-52
2021/11/30 06:41:25;;;;;;;6.53;2.15;;;25.50;90.60;;;;;;5067221;28;20237;-46
2021/11/30 06:43:51;;;;;;;8.25;2.40;;;25.50;90.60;;;;;;5067075;28;20020;-46
2021/11/30 06:46:19;;;;;;;3.33;2.00;;;25.50;90.50;;;;;;5067378;28;20075;-50
2021/11/30 06:48:46;;;;;;;4.63;2.20;;;25.50;90.60;;;;;;5066781;28;20059;-52
2021/11/30 06:51:15;;;;;;;5.43;2.28;;;25.50;90.70;;;;;;5067174;28;20096;-47
2021/11/30 06:53:42;;;;;;;3.90;1.90;;;25.50;90.80;;;;;;5066849;28;20021;-50
2021/11/30 06:56:09;;;;;;;8.45;2.47;;;25.50;90.80;;;;;;5066744;28;20056;-53
2021/11/30 06:58:35;;;;;;;6.65;2.25;;;25.50;90.90;;;;;;5066776;28;20080;-46
2021/11/30 07:01:02;;;;;;;8.18;2.40;;;25.50;90.90;;;;;;5066814;28;20025;-46
2021/11/30 07:03:29;;;;;;;7.32;2.50;;;25.50;90.90;;;;;;5066493;28;20017;-46
2021/11/30 07:06:06;;;;;;;4.97;2.17;;;25.40;90.90;;;;;;5067033;28;20101;-47
2021/11/30 07:11:21;;;;;;;7.35;2.22;;;25.40;90.80;;;;;;5066870;28;20050;-47
2021/11/30 07:13:48;;;;;;;6.03;2.03;;;25.40;90.80;;;;;;5066420;28;20021;-52
2021/11/30 07:16:14;;;;;;;3.17;2.20;;;25.40;90.90;;;;;;5066627;28;20195;-48
2021/11/30 07:18:41;;;;;;;3.47;2.22;;;25.40;90.90;;;;;;5066574;28;20013;-47
2021/11/30 07:21:08;;;;;;;5.97;2.33;;;25.40;90.90;;;;;;5066502;28;20070;-51
2021/11/30 07:23:35;;;;;;;5.15;1.98;;;25.40;91.00;;;;;;5066338;28;20021;-53
2021/11/30 07:26:02;;;;;;;7.28;2.60;;;25.40;91.00;;;;;;5066424;28;20029;-50
2021/11/30 07:28:31;;;;;;;4.40;2.30;;;25.40;91.00;;;;;;5066270;28;20017;-50
2021/11/30 07:31:10;;;;;;;9.02;2.28;;;25.40;91.00;;;;;;5066189;28;20301;-51
2021/11/30 07:33:43;;;;;;;4.18;1.90;;;25.40;90.90;;;;;;5066058;28;20051;-46
2021/11/30 07:36:11;;;;;;;3.15;2.00;;;25.40;90.90;;;;;;5098761;28;20071;-49
2021/11/30 07:38:40;;;;;;;5.35;1.92;;;25.40;90.80;;;;;;5106373;28;20015;-55
2021/11/30 07:41:06;;;;;;;4.05;2.25;;;25.40;90.70;;;;;;5106549;28;20024;-55
2021/11/30 07:43:34;;;;;;;4.28;2.00;;;25.40;90.60;;;;;;5106222;28;20369;-46
2021/11/30 07:46:00;;;;;;;6.13;2.03;;;25.40;90.70;;;;;;5106026;28;20051;-47
2021/11/30 07:48:28;;;;;;;6.25;2.20;;;25.40;90.60;;;;;;5106403;28;20034;-47
2021/11/30 07:50:56;;;;;;;12.68;2.28;;;25.40;90.60;;;;;;5106077;28;20031;-50
2021/11/30 07:53:24;;;;;;;4.47;2.35;;;25.40;90.60;;;;;;5106098;28;20020;-51
2021/11/30 07:55:51;;;;;;;3.95;1.75;;;25.50;90.60;;;;;;5106156;28;20032;-52
2021/11/30 07:58:19;;;;;;;5.80;1.92;;;25.50;90.60;;;;;;5105730;28;20024;-47
2021/11/30 08:00:50;;;;;;;4.45;1.90;;;25.50;90.60;;;;;;5105998;28;20032;-54
2021/11/30 08:03:18;;;;;;;7.50;1.98;;;25.50;90.60;;;;;;5105883;28;20079;-51
2021/11/30 08:05:45;;;;;;;3.13;1.88;;;25.50;90.50;;;;;;5106077;28;20388;-54
2021/11/30 08:08:12;;;;;;;5.07;2.20;;;25.50;90.50;;;;;;5105796;28;20027;-49
2021/11/30 08:10:38;;;;;;;3.20;2.20;;;25.50;90.50;;;;;;5105933;28;20235;-49
2021/11/30 08:13:05;;;;;;;8.18;1.90;;;25.50;90.50;;;;;;5105617;28;20065;-51
2021/11/30 08:15:32;;;;;;;6.18;2.25;;;25.50;90.50;;;;;;5105862;28;20023;-47
2021/11/30 08:17:58;;;;;;;5.45;1.83;;;25.50;90.50;;;;;;5105395;28;20093;-47
2021/11/30 08:20:25;;;;;;;4.47;2.17;;;25.50;90.50;;;;;;5105528;28;20024;-47
2021/11/30 08:22:52;;;;;;;5.15;1.80;;;25.50;90.50;;;;;;5105579;28;20039;-49
2021/11/30 08:25:18;;;;;;;3.30;1.95;;;25.50;90.50;;;;;;5105517;28;20024;-52
2021/11/30 08:27:45;;;;;;;5.90;2.13;;;25.50;90.40;;;;;;5105336;28;20024;-52
2021/11/30 08:30:12;;;;;;;3.25;1.80;;;25.60;90.40;;;;;;5105402;28;20319;-48
2021/11/30 08:32:41;;;;;;;5.80;2.05;;;25.60;90.40;;;;;;5105311;28;20027;-50
2021/11/30 08:35:09;;;;;;;5.22;1.85;;;25.50;90.30;;;;;;5104958;28;20212;-50
2021/11/30 08:37:37;;;;;;;1.98;1.88;;;25.50;90.60;;;;;;5104906;28;20225;-53
2021/11/30 08:40:07;;;;;;;3.35;1.73;;;25.60;90.40;;;;;;5105152;28;20568;-47
2021/11/30 08:42:34;;;;;;;5.70;2.00;;;25.60;90.40;;;;;;5104987;28;20389;-54
2021/11/30 08:45:00;;;;;;;4.30;2.05;;;25.50;90.40;;;;;;5104954;28;20061;-50
2021/11/30 08:47:27;;;;;;;7.25;1.90;;;25.50;90.40;;;;;;5104916;28;20019;-50
2021/11/30 08:49:54;;;;;;;3.72;1.98;;;25.50;90.40;;;;;;5104986;28;20064;-52
2021/11/30 08:52:26;;;;;;;6.13;2.00;;;25.60;90.40;;;;;;5104925;28;20031;-52
2021/11/30 08:54:54;;;;;;;6.40;2.03;;;25.60;90.30;;;;;;5104727;28;20024;-49
2021/11/30 08:57:21;;;;;;;4.60;1.88;;;25.50;90.30;;;;;;5104290;28;20095;-48
2021/11/30 08:59:48;;;;;;;4.13;1.77;;;25.50;90.40;;;;;;5104304;28;20044;-47
2021/11/30 09:02:16;;;;;;;5.05;1.50;;;25.50;90.50;;;;;;5105271;28;20016;-51
2021/11/30 09:04:43;;;;;;;4.55;1.67;;;25.50;90.40;;;;;;5104537;28;20015;-51
2021/11/30 09:07:10;;;;;;;3.90;1.65;;;25.50;90.40;;;;;;5105135;28;20028;-49
2021/11/30 09:09:36;;;;;;;9.27;2.00;;;25.60;90.40;;;;;;5104646;28;20057;-46
2021/11/30 09:12:04;;;;;;;4.75;2.05;;;25.50;90.40;;;;;;5104968;28;20024;-50
2021/11/30 09:14:31;;;;;;;5.03;1.90;;;25.50;90.40;;;;;;5104394;28;20032;-52
2021/11/30 09:16:57;;;;;;;12.65;2.72;;;25.60;90.50;;;;;;5104754;28;20238;-48
2021/11/30 09:19:24;;;;;;;6.45;2.00;;;25.60;90.40;;;;;;5104314;28;20040;-50
2021/11/30 09:21:52;;;;;;;3.88;2.00;;;25.60;90.40;;;;;;5104850;28;20031;-49
2021/11/30 09:24:19;;;;;;;4.68;1.90;;;25.50;90.40;;;;;;5104435;28;20024;-53
2021/11/30 09:26:46;;;;;;;4.55;1.73;;;25.60;90.40;;;;;;5104439;28;20039;-50
2021/11/30 09:29:13;;;;;;;5.40;1.77;;;25.60;90.50;;;;;;5104334;28;20020;-51
2021/11/30 09:31:40;;;;;;;4.30;1.77;;;25.50;90.40;;;;;;5104574;28;20028;-46
2021/11/30 09:34:07;;;;;;;3.05;1.70;;;25.50;90.40;;;;;;5103967;28;20024;-51
2021/11/30 09:36:34;;;;;;;5.57;1.85;;;25.60;90.40;;;;;;5104191;28;20192;-50
2021/11/30 09:39:03;;;;;;;1.55;1.45;;;25.50;90.50;;;;;;5104102;28;20026;-54
2021/11/30 09:41:31;;;;;;;3.03;1.52;;;25.60;90.50;;;;;;5104291;28;20020;-56
2021/11/30 09:43:58;;;;;;;5.32;2.00;;;25.60;90.40;;;;;;5104068;28;20047;-47
2021/11/30 09:46:25;;;;;;;5.35;1.80;;;25.60;90.40;;;;;;5104456;28;20200;-52
2021/11/30 09:48:52;;;;;;;6.53;2.03;;;25.60;90.40;;;;;;5103906;28;20016;-48
2021/11/30 09:51:20;;;;;;;4.90;1.65;;;25.60;90.40;;;;;;5104440;28;20038;-47
2021/11/30 09:53:47;;;;;;;5.97;2.00;;;25.60;90.20;;;;;;5104057;28;20335;-45
2021/11/30 09:56:14;;;;;;;5.50;2.05;;;25.60;90.20;;;;;;5104101;28;20032;-54
2021/11/30 09:58:41;;;;;;;4.63;1.63;;;25.60;90.20;;;;;;5103956;28;20057;-51
2021/11/30 10:01:12;;;;;;;7.22;1.65;;;25.60;90.20;;;;;;5100511;28;20024;-50
2021/11/30 10:03:41;;;;;;;3.60;1.77;;;25.60;90.10;;;;;;5103773;28;20193;-47
2021/11/30 10:06:09;;;;;;;4.65;1.60;;;25.60;90.10;;;;;;5104164;28;20024;-54
2021/11/30 10:08:43;;;;;;;5.30;1.88;;;25.60;90.10;;;;;;5103796;28;20264;-50
2021/11/30 10:11:31;;;;;;;4.00;1.80;;;25.60;90.10;;;;;;5108063;28;20048;-51
2021/11/30 10:14:33;;;;;;;3.55;1.77;;;25.60;90.10;;;;;;5107942;28;20019;-57
2021/11/30 10:17:26;;;;;;;2.60;1.75;;;25.60;90.10;;;;;;5094551;28;20050;-47
2021/11/30 10:19:57;;;;;;;;;;;25.60;90.10;;;;;;5108119;28;20093;-53
2021/11/30 10:22:41;;;;;;;4.35;1.85;;;25.60;90.10;;;;;;5107693;28;19904;-49
2021/11/30 10:25:36;;;;;;;8.30;1.90;;;25.50;90.10;;;;;;5107580;28;20304;-56
2021/11/30 10:28:06;;;;;;;7.13;1.60;;;25.60;90.20;;;;;;5107625;28;20193;-52
2021/11/30 10:30:36;;;;;;;4.80;1.80;;;25.50;90.10;;;;;;5107943;28;20027;-53
2021/11/30 10:33:05;;;;;;;5.03;1.83;;;25.50;90.20;;;;;;5107510;28;20327;-48
2021/11/30 10:35:33;;;;;;;2.92;1.75;;;25.50;90.20;;;;;;5107425;28;20046;-48
2021/11/30 10:38:02;;;;;;;5.43;2.25;;;25.50;90.20;;;;;;5107462;28;20073;-48
2021/11/30 10:40:30;;;;;;;8.57;2.70;;;25.50;90.20;;;;;;5107438;28;20208;-51
2021/11/30 10:43:03;;;;;;;8.10;2.50;;;25.50;90.30;;;;;;5107414;28;20200;-51
2021/11/30 10:45:36;;;;;;;5.47;2.03;;;25.50;90.40;;;;;;5107383;28;20028;-49
2021/11/30 10:48:08;;;;;;;9.57;2.25;;;25.50;90.50;;;;;;5107301;28;20269;-52
2021/11/30 10:50:41;;;;;;;5.32;2.20;;;25.50;90.60;;;;;;5107392;28;20024;-48
2021/11/30 10:53:15;;;;;;;5.13;2.50;;;25.50;90.80;;;;;;5106977;28;20024;-51
2021/11/30 10:55:48;;;;;;;9.48;2.63;;;25.50;90.80;;;;;;5107202;28;20051;-52
2021/11/30 10:58:16;;;;;;;3.75;2.42;;;25.50;90.90;;;;;;5106861;28;20024;-47
2021/11/30 11:00:43;;;;;;;7.88;2.38;;;25.50;90.80;;;;;;5107280;28;20020;-51
2021/11/30 11:03:17;;;;;;;6.72;2.50;;;25.50;91.00;;;;;;5107169;28;20083;-50
2021/11/30 11:05:48;;;;;;;5.63;2.53;;;25.50;91.10;;;;;;5106899;28;20100;-49
2021/11/30 11:08:20;;;;;;;9.07;2.78;;;25.50;91.10;;;;;;5106985;28;20022;-50
2021/11/30 11:11:04;;;;;;;6.00;2.58;;;25.50;91.10;;;;;;5106899;28;20367;-46
2021/11/30 11:13:35;;;;;;;8.63;3.30;;;25.50;91.10;;;;;;5106981;28;20024;-49
2021/11/30 11:16:05;;;;;;;6.05;3.22;;;25.50;90.90;;;;;;5106934;28;20035;-46
2021/11/30 11:18:33;;;;;;;7.20;3.33;;;25.50;90.90;;;;;;5107072;28;20238;-49
2021/11/30 11:21:22;;;;;;;12.70;3.53;;;25.50;90.90;;;;;;5106150;28;20039;-54
2021/11/30 11:24:12;;;;;;;8.82;3.47;;;25.60;90.90;;;;;;5087209;28;20328;-49
2021/11/30 11:26:48;;;;;;;8.02;3.35;;;25.60;91.10;;;;;;5106938;28;20054;-48
2021/11/30 11:29:25;;;;;;;7.18;3.30;;;25.60;91.10;;;;;;5106489;28;20024;-46
2021/11/30 11:31:56;;;;;;;6.57;3.08;;;25.60;91.00;;;;;;5106730;28;20036;-46
2021/11/30 11:34:25;;;;;;;10.35;3.40;;;25.70;91.00;;;;;;5105363;28;20020;-50
2021/11/30 11:36:54;;;;;;;6.00;3.25;;;25.70;91.00;;;;;;5104275;28;20269;-52
2021/11/30 11:39:23;;;;;;;8.35;3.33;;;25.70;91.10;;;;;;5104700;28;20305;-46
2021/11/30 11:41:56;;;;;;;3.70;2.75;;;25.80;91.00;;;;;;5104636;28;20036;-51
2021/11/30 11:44:23;;;;;;;6.07;2.92;;;25.80;91.10;;;;;;5104876;28;20028;-53
2021/11/30 11:46:52;;;;;;;7.68;2.72;;;25.80;91.10;;;;;;5104960;28;20095;-47
2021/11/30 11:49:24;;;;;;;14.10;2.90;;;25.80;91.10;;;;;;5105228;28;20042;-52
2021/11/30 11:51:53;;;;;;;5.70;2.70;;;25.80;91.10;;;;;;5106347;28;20020;-50
2021/11/30 11:54:23;;;;;;;6.40;2.55;;;25.80;91.10;;;;;;5106150;28;20052;-54
2021/11/30 11:57:10;;;;;;;5.25;2.83;;;25.90;91.10;;;;;;5106236;28;20028;-55
2021/11/30 11:59:40;;;;;;;7.68;2.72;;;25.90;91.10;;;;;;5087834;28;20016;-55
2021/11/30 12:02:22;;;;;;;18.02;10.32;;;25.90;91.10;;;;;;5106489;28;20038;-46
2021/11/30 12:04:54;;;;;;;11.65;6.68;;;25.90;91.20;;;;;;5106266;28;20019;-48
2021/11/30 12:07:23;;;;;;;11.40;5.53;;;25.90;91.20;;;;;;5105817;28;20035;-45
2021/11/30 12:10:10;;;;;;;6.70;4.70;;;25.90;91.20;;;;;;5105523;28;20030;-45
2021/11/30 12:12:36;;;;;;;9.48;4.95;;;25.90;91.30;;;;;;5105721;28;20224;-47
2021/11/30 12:15:05;;;;;;;9.27;4.38;;;26.00;91.30;;;;;;5105584;28;20016;-47
2021/11/30 12:17:32;;;;;;;6.95;4.03;;;26.00;91.30;;;;;;5096143;28;20024;-47
2021/11/30 12:20:03;;;;;;;10.10;4.00;;;25.90;91.40;;;;;;5103774;28;20016;-44
2021/11/30 12:22:49;;;;;;;4.80;3.53;;;25.90;91.40;;;;;;5105445;28;20072;-49
2021/11/30 12:25:26;;;;;;;5.85;3.33;;;26.00;91.50;;;;;;5105460;28;20016;-49
2021/11/30 12:27:55;;;;;;;5.85;3.40;;;26.00;91.50;;;;;;5105332;28;20091;-52
2021/11/30 12:30:42;;;;;;;6.25;3.20;;;26.00;91.50;;;;;;5097510;28;20032;-46
2021/11/30 12:33:28;;;;;;;7.10;3.47;;;26.00;91.50;;;;;;5089580;28;20212;-46
2021/11/30 12:36:11;;;;;;;5.15;3.20;;;26.00;91.60;;;;;;5093427;28;20037;-47
2021/11/30 12:39:02;;;;;;;7.82;2.97;;;26.00;91.70;;;;;;5086737;28;20027;-47
2021/11/30 12:41:39;;;;;;;6.82;3.28;;;26.00;91.60;;;;;;5087294;28;20031;-45
2021/11/30 12:44:17;;;;;;;8.48;3.17;;;26.00;91.60;;;;;;5103876;28;20012;-48
2021/11/30 12:46:49;;;;;;;6.43;3.17;;;26.00;91.60;;;;;;5105232;28;20070;-49
2021/11/30 12:49:25;;;;;;;6.05;3.40;;;26.10;91.60;;;;;;5094672;28;20336;-52
2021/11/30 12:52:19;;;;;;;4.85;3.47;;;26.00;91.60;;;;;;5095577;28;20375;-56
2021/11/30 12:55:13;;;;;;;10.52;3.42;;;26.10;91.70;;;;;;5101784;28;20029;-50
2021/11/30 12:57:43;;;;;;;11.80;3.28;;;26.10;91.60;;;;;;5040780;28;20039;-54
2021/11/30 13:00:29;;;;;;;8.23;3.60;;;26.10;91.60;;;;;;5095129;28;20062;-53
2021/11/30 13:03:16;;;;;;;5.55;3.13;;;26.10;91.70;;;;;;5084391;28;20020;-47
2021/11/30 13:06:01;;;;;;;6.65;3.35;;;26.10;91.70;;;;;;5090166;28;20095;-50
2021/11/30 13:08:28;;;;;;;7.75;3.20;;;26.10;91.80;;;;;;5104992;28;20264;-47
2021/11/30 13:10:55;;;;;;;8.10;3.30;;;26.20;91.80;;;;;;5099673;28;20030;-57
2021/11/30 13:13:26;;;;;;;9.63;3.05;;;26.20;91.80;;;;;;5086580;28;20012;-48